Time;durP1;ratioP1;P1;durP2;ratioP2;P2;SDS_P1;SDS_P2;PMS_P1;PMS_P2;Temp;Humidity;BMP_temperature;BMP_pressure;BME280_temperature;BME280_humidity;BME280_pressure;Samples;Min_cycle;Max_cycle;Signal;HPM_P1;HPM_P2
2022/12/28 00:01:08;;;;;;;14.93;1.67;;;10.50;99.90;;;;;;5013513;28;20264;-59
2022/12/28 00:03:34;;;;;;;11.50;1.67;;;10.50;99.90;;;;;;5011332;28;20228;-60
2022/12/28 00:06:00;;;;;;;16.83;1.80;;;10.40;99.90;;;;;;5011433;28;20681;-60
2022/12/28 00:08:25;;;;;;;12.20;1.33;;;10.40;99.90;;;;;;5008067;28;20507;-60
2022/12/28 00:10:51;;;;;;;10.57;1.33;;;10.40;99.90;;;;;;5011959;28;20285;-60
2022/12/28 00:13:17;;;;;;;16.50;1.63;;;10.40;99.90;;;;;;5015607;28;20269;-61
2022/12/28 00:15:42;;;;;;;9.10;1.20;;;10.40;99.90;;;;;;5016359;28;20220;-59
2022/12/28 00:18:08;;;;;;;11.27;1.40;;;10.40;99.90;;;;;;5016364;28;20170;-59
2022/12/28 00:20:33;;;;;;;8.87;1.23;;;10.40;99.90;;;;;;5014920;28;20186;-59
2022/12/28 00:23:04;;;;;;;7.70;0.97;;;10.40;99.90;;;;;;5010985;28;20218;-61
2022/12/28 00:25:30;;;;;;;12.03;1.43;;;10.40;99.90;;;;;;5010975;28;20167;-61
2022/12/28 00:27:55;;;;;;;8.37;0.93;;;10.40;99.90;;;;;;5012813;28;20184;-60
2022/12/28 00:30:21;;;;;;;9.57;1.00;;;10.40;99.90;;;;;;5013912;28;20182;-60
2022/12/28 00:32:47;;;;;;;7.87;1.20;;;10.40;99.90;;;;;;5016327;28;20174;-59
2022/12/28 00:35:12;;;;;;;7.33;1.50;;;10.40;99.90;;;;;;5014772;28;20258;-61
2022/12/28 00:37:38;;;;;;;9.30;1.03;;;10.40;99.90;;;;;;5011956;28;20467;-60
2022/12/28 00:40:04;;;;;;;8.33;1.13;;;10.40;99.90;;;;;;5014935;28;20653;-61
2022/12/28 00:42:29;;;;;;;8.53;1.00;;;10.40;99.90;;;;;;5014707;28;20264;-59
2022/12/28 00:44:55;;;;;;;9.43;1.20;;;10.30;99.90;;;;;;5014997;28;20179;-59
2022/12/28 00:47:21;;;;;;;7.07;1.20;;;10.30;99.90;;;;;;5015755;28;20642;-59
2022/12/28 00:49:46;;;;;;;5.23;0.93;;;10.30;99.90;;;;;;5012452;28;20221;-60
2022/12/28 00:52:12;;;;;;;9.90;1.20;;;10.40;99.90;;;;;;5019955;28;20685;-59
2022/12/28 00:54:37;;;;;;;7.03;0.87;;;10.40;99.90;;;;;;5012194;28;20166;-59
2022/12/28 00:57:03;;;;;;;9.07;1.17;;;10.40;99.90;;;;;;5023494;28;20695;-60
2022/12/28 00:59:28;;;;;;;6.73;0.90;;;10.40;99.90;;;;;;5023645;28;20201;-60
2022/12/28 01:01:54;;;;;;;14.13;1.30;;;10.40;99.90;;;;;;5022772;28;20199;-61
2022/12/28 01:04:20;;;;;;;7.77;0.73;;;10.40;99.90;;;;;;5017883;28;20541;-59
2022/12/28 01:06:45;;;;;;;5.40;0.63;;;10.40;99.90;;;;;;5021261;28;20278;-59
2022/12/28 01:09:11;;;;;;;5.83;0.73;;;10.40;99.90;;;;;;5021476;28;20197;-59
2022/12/28 01:11:36;;;;;;;8.07;1.00;;;10.40;99.90;;;;;;5012283;28;20209;-59
2022/12/28 01:14:02;;;;;;;9.80;0.80;;;10.30;99.90;;;;;;5013714;28;20202;-59
2022/12/28 01:16:31;;;;;;;10.30;1.20;;;10.30;99.90;;;;;;5015297;28;20205;-59
2022/12/28 01:18:59;;;;;;;7.40;0.73;;;10.30;99.90;;;;;;5019767;28;20221;-58
2022/12/28 01:21:28;;;;;;;3.33;0.60;;;10.20;99.90;;;;;;5020469;28;20197;-60
2022/12/28 01:23:57;;;;;;;8.67;0.90;;;10.20;99.90;;;;;;5017336;28;20205;-59
2022/12/28 01:26:23;;;;;;;8.50;0.77;;;10.20;99.90;;;;;;5020623;28;20172;-60
2022/12/28 01:28:49;;;;;;;7.93;0.97;;;10.10;99.90;;;;;;5021876;28;20261;-61
2022/12/28 01:31:16;;;;;;;2.23;0.60;;;10.10;99.90;;;;;;5016269;28;20616;-59
2022/12/28 01:33:43;;;;;;;6.27;0.70;;;10.00;99.90;;;;;;5020615;28;20177;-59
2022/12/28 01:36:17;;;;;;;7.63;0.97;;;10.00;99.90;;;;;;5021878;28;20217;-60
2022/12/28 01:38:44;;;;;;;5.37;0.70;;;10.00;99.90;;;;;;5020856;28;20706;-60
2022/12/28 01:41:14;;;;;;;8.53;0.77;;;10.00;99.90;;;;;;5019496;28;20187;-60
2022/12/28 01:43:47;;;;;;;6.70;0.60;;;9.90;99.90;;;;;;5020811;28;20680;-59
2022/12/28 01:46:16;;;;;;;13.47;1.10;;;9.90;99.90;;;;;;5021653;28;20180;-59
2022/12/28 01:48:50;;;;;;;4.93;0.93;;;9.90;99.90;;;;;;5020517;28;20552;-59
2022/12/28 01:51:18;;;;;;;4.60;0.73;;;9.90;99.90;;;;;;5017295;28;20328;-59
2022/12/28 01:53:45;;;;;;;6.67;0.97;;;9.90;99.90;;;;;;5012379;28;20178;-58
2022/12/28 01:56:11;;;;;;;9.07;0.90;;;9.90;99.90;;;;;;5012126;28;20228;-57
2022/12/28 01:58:38;;;;;;;6.27;1.00;;;9.90;99.90;;;;;;4995441;28;20203;-58
2022/12/28 02:01:04;;;;;;;7.77;1.07;;;9.80;99.90;;;;;;5011831;28;20170;-58
2022/12/28 02:03:33;;;;;;;9.37;1.00;;;9.90;99.90;;;;;;5010313;28;20181;-57
2022/12/28 02:06:01;;;;;;;12.57;0.93;;;9.80;99.90;;;;;;5008432;28;20186;-58
2022/12/28 02:09:00;;;;;;;5.80;0.73;;;9.80;99.90;;;;;;5006117;28;20191;-58
2022/12/28 02:11:26;;;;;;;12.07;1.23;;;9.80;99.90;;;;;;5006755;28;20181;-58
2022/12/28 02:13:53;;;;;;;9.47;1.30;;;9.80;99.90;;;;;;5004805;28;20171;-59
2022/12/28 02:16:19;;;;;;;7.13;0.90;;;9.80;99.90;;;;;;5001215;28;20213;-57
2022/12/28 02:18:46;;;;;;;8.13;1.20;;;9.80;99.90;;;;;;5011042;28;20170;-58
2022/12/28 02:21:22;;;;;;;10.23;1.20;;;9.80;99.90;;;;;;5010116;28;20238;-58
2022/12/28 02:23:56;;;;;;;6.20;0.83;;;9.80;99.90;;;;;;5011387;28;20167;-58
2022/12/28 02:26:31;;;;;;;9.60;1.50;;;9.80;99.90;;;;;;5011293;28;20178;-58
2022/12/28 02:29:03;;;;;;;10.43;1.27;;;9.80;99.90;;;;;;5011380;28;20170;-58
2022/12/28 02:31:32;;;;;;;10.93;0.97;;;10.10;99.90;;;;;;5011317;28;20170;-58
2022/12/28 02:34:25;;;;;;;5.70;1.03;;;9.80;99.90;;;;;;5011511;28;20259;-58
2022/12/28 02:36:59;;;;;;;6.10;1.10;;;9.80;99.90;;;;;;5002083;28;20635;-55
2022/12/28 02:39:37;;;;;;;5.70;0.83;;;9.80;99.90;;;;;;5006221;28;20178;-58
2022/12/28 02:42:05;;;;;;;4.13;0.90;;;9.80;99.90;;;;;;5011106;28;20301;-58
2022/12/28 02:50:06;;;;;;;7.63;1.20;;;9.80;99.90;;;;;;5011426;28;20336;-58
2022/12/28 02:53:02;;;;;;;7.50;1.10;;;9.80;99.90;;;;;;5010989;28;20234;-58
2022/12/28 02:56:06;;;;;;;6.17;0.80;;;9.80;99.90;;;;;;5010653;28;20304;-58
2022/12/28 02:58:55;;;;;;;5.47;0.77;;;9.90;99.90;;;;;;5011071;28;20661;-58
2022/12/28 03:01:59;;;;;;;8.03;0.60;;;10.00;99.90;;;;;;5006326;28;20222;-58
2022/12/28 03:04:46;;;;;;;4.83;0.67;;;10.00;99.90;;;;;;4986435;28;20179;-58
2022/12/28 03:08:30;;;;;;;1.83;0.40;;;10.00;99.90;;;;;;4970806;28;20188;-58
2022/12/28 03:10:28;;;;;;;5.43;0.87;;;10.10;99.90;;;;;;4984685;28;20179;-59
2022/12/28 03:12:56;;;;;;;3.73;0.50;;;10.20;99.90;;;;;;5008927;28;20713;-59
2022/12/28 03:15:30;;;;;;;3.87;0.50;;;10.10;99.90;;;;;;5007240;28;20676;-56
2022/12/28 03:31:53;;;;;;;3.20;0.50;;;10.20;99.90;;;;;;5010842;28;20328;-58
2022/12/28 03:34:19;;;;;;;1.23;0.37;;;10.20;99.90;;;;;;5012738;28;20201;-59
2022/12/28 03:37:10;;;;;;;1.07;0.30;;;10.20;99.90;;;;;;5014420;28;20182;-59
2022/12/28 03:39:57;;;;;;;3.67;0.53;;;10.20;99.90;;;;;;5014260;28;20186;-59
2022/12/28 03:45:40;;;;;;;6.43;0.60;;;10.40;99.90;;;;;;5014468;28;20641;-58
2022/12/28 03:48:07;;;;;;;4.23;0.37;;;10.20;99.90;;;;;;5014248;28;20178;-59
2022/12/28 03:50:39;;;;;;;1.47;0.30;;;10.20;99.90;;;;;;5013804;28;20167;-59
2022/12/28 03:53:06;;;;;;;4.63;0.77;;;10.10;99.90;;;;;;5014038;28;20229;-59
2022/12/28 03:55:32;;;;;;;8.43;0.67;;;10.10;99.90;;;;;;5014131;28;20646;-58
2022/12/28 03:57:58;;;;;;;4.97;0.60;;;10.00;99.90;;;;;;5013873;28;20183;-58
2022/12/28 04:00:23;;;;;;;2.47;0.67;;;10.10;99.90;;;;;;4608976;22;22306;-58
2022/12/28 04:02:49;;;;;;;3.83;0.90;;;10.00;99.90;;;;;;5034316;23;20559;-59
2022/12/28 04:05:15;;;;;;;6.03;1.17;;;10.10;99.90;;;;;;5029313;28;20178;-59
2022/12/28 04:07:40;;;;;;;7.17;0.87;;;10.10;99.90;;;;;;5032520;28;20200;-59
2022/12/28 04:10:06;;;;;;;5.53;1.10;;;9.90;99.90;;;;;;5032354;28;20656;-59
2022/12/28 04:12:32;;;;;;;3.10;0.90;;;10.10;99.90;;;;;;5032948;28;20550;-59
2022/12/28 04:14:57;;;;;;;4.30;0.80;;;10.10;99.90;;;;;;5032074;28;20174;-59
2022/12/28 04:17:23;;;;;;;5.57;0.87;;;10.10;99.90;;;;;;5032859;28;20193;-58
2022/12/28 04:19:49;;;;;;;6.73;1.20;;;10.10;99.90;;;;;;5032954;28;20178;-58
2022/12/28 04:22:15;;;;;;;2.10;1.10;;;;;;;;;;5033081;28;20374;-58
2022/12/28 04:24:40;;;;;;;3.90;1.37;;;10.00;99.90;;;;;;5033019;28;20782;-58
2022/12/28 04:27:06;;;;;;;7.90;1.53;;;10.00;99.90;;;;;;5032935;28;20224;-58
2022/12/28 04:29:31;;;;;;;4.87;1.50;;;10.00;99.90;;;;;;5033001;28;20618;-58
2022/12/28 04:31:57;;;;;;;3.90;1.67;;;10.00;99.90;;;;;;5032740;28;20652;-58
2022/12/28 04:34:23;;;;;;;8.63;1.70;;;10.00;99.90;;;;;;5032522;28;20174;-58
2022/12/28 04:36:48;;;;;;;6.87;1.67;;;10.00;99.90;;;;;;5032822;28;20592;-60
2022/12/28 04:39:14;;;;;;;5.67;1.30;;;10.10;99.90;;;;;;5032961;28;20213;-58
2022/12/28 04:41:39;;;;;;;5.43;1.40;;;10.10;99.90;;;;;;5032187;28;20206;-58
2022/12/28 04:44:05;;;;;;;7.53;1.60;;;10.10;99.90;;;;;;5032268;28;20186;-58
2022/12/28 04:46:31;;;;;;;4.03;1.30;;;10.10;99.90;;;;;;5033016;28;20189;-58
2022/12/28 04:48:57;;;;;;;3.03;1.23;;;10.10;99.90;;;;;;5032988;28;20247;-58
2022/12/28 04:51:25;;;;;;;3.07;1.30;;;10.10;99.90;;;;;;5032380;28;20595;-58
2022/12/28 04:53:52;;;;;;;3.20;1.27;;;10.10;99.90;;;;;;5032465;28;20216;-58
2022/12/28 04:56:19;;;;;;;4.00;1.10;;;10.10;99.90;;;;;;5032202;28;20636;-58
2022/12/28 04:58:45;;;;;;;2.20;1.40;;;10.20;99.90;;;;;;5032367;28;20239;-58
2022/12/28 05:01:16;;;;;;;3.63;1.50;;;10.20;99.90;;;;;;5031844;28;20218;-58
2022/12/28 05:03:43;;;;;;;3.23;0.97;;;10.30;99.90;;;;;;5032252;28;20178;-55
2022/12/28 05:06:15;;;;;;;1.90;0.70;;;10.30;99.90;;;;;;5032485;28;20170;-55
2022/12/28 05:08:42;;;;;;;4.97;1.10;;;10.40;99.90;;;;;;5032261;28;20651;-58
2022/12/28 05:11:11;;;;;;;1.77;0.90;;;10.60;99.90;;;;;;5032402;28;20253;-58
2022/12/28 05:13:37;;;;;;;2.40;0.67;;;10.60;99.90;;;;;;5016282;28;20536;-58
2022/12/28 05:16:04;;;;;;;2.30;0.70;;;10.80;99.90;;;;;;5032192;28;20174;-58
2022/12/28 05:18:30;;;;;;;1.33;0.47;;;10.90;99.90;;;;;;5032302;28;20178;-59
2022/12/28 05:21:07;;;;;;;0.30;0.30;;;11.10;99.90;;;;;;5032177;28;20671;-62
2022/12/28 05:23:34;;;;;;;4.63;0.33;;;11.20;99.90;;;;;;5025934;28;20213;-59
2022/12/28 05:26:00;;;;;;;3.03;0.30;;;11.40;99.90;;;;;;5032426;28;20210;-59
2022/12/28 05:28:26;;;;;;;0.13;0.13;;;11.50;99.90;;;;;;5032179;28;20694;-59
2022/12/28 05:30:57;;;;;;;0.83;0.30;;;11.50;99.90;;;;;;5032010;28;20201;-59
2022/12/28 05:33:23;;;;;;;4.37;0.20;;;11.60;99.90;;;;;;5031353;28;20170;-57
2022/12/28 05:35:48;;;;;;;0.30;0.20;;;11.60;99.90;;;;;;5031846;28;20174;-58
2022/12/28 05:38:14;;;;;;;3.00;0.30;;;11.60;99.90;;;;;;5031941;28;20193;-58
2022/12/28 05:40:39;;;;;;;0.20;0.20;;;11.60;99.90;;;;;;5030308;28;20627;-58
2022/12/28 05:43:05;;;;;;;1.17;0.30;;;11.60;99.90;;;;;;5031924;28;20209;-58
2022/12/28 05:45:30;;;;;;;0.13;0.10;;;11.60;99.90;;;;;;5031861;28;20608;-58
2022/12/28 05:47:56;;;;;;;0.20;0.10;;;11.60;99.90;;;;;;5031875;28;20181;-56
2022/12/28 05:50:22;;;;;;;1.33;0.20;;;11.60;99.90;;;;;;5031676;28;20628;-58
2022/12/28 05:52:47;;;;;;;0.40;0.10;;;11.60;99.90;;;;;;5031540;28;20205;-58
2022/12/28 05:55:13;;;;;;;0.87;0.20;;;11.70;99.90;;;;;;5031033;28;20636;-58
2022/12/28 05:57:39;;;;;;;0.43;0.10;;;11.60;99.90;;;;;;5031653;28;20181;-58
2022/12/28 06:00:06;;;;;;;1.73;0.30;;;11.60;99.90;;;;;;5031552;28;20725;-58
2022/12/28 06:02:32;;;;;;;1.57;0.30;;;11.60;99.90;;;;;;5031358;28;20233;-59
2022/12/28 06:04:57;;;;;;;1.30;0.40;;;11.60;99.90;;;;;;5031004;28;20178;-58
2022/12/28 06:07:23;;;;;;;1.17;0.20;;;11.60;99.90;;;;;;5027301;28;20249;-58
2022/12/28 06:09:49;;;;;;;2.13;0.27;;;11.60;99.90;;;;;;5029260;28;20174;-58
2022/12/28 06:12:15;;;;;;;3.30;0.13;;;11.50;99.90;;;;;;5030856;28;20590;-58
2022/12/28 06:14:41;;;;;;;3.37;0.40;;;11.60;99.90;;;;;;5026131;28;20193;-58
2022/12/28 06:17:06;;;;;;;0.57;0.20;;;11.60;99.90;;;;;;5011662;28;20652;-58
2022/12/28 06:19:32;;;;;;;1.00;0.20;;;11.60;99.90;;;;;;5026291;28;20724;-57
2022/12/28 06:21:58;;;;;;;1.30;0.23;;;11.60;99.90;;;;;;5030911;28;20209;-58
2022/12/28 06:24:23;;;;;;;0.80;0.30;;;11.60;99.90;;;;;;5030640;28;20227;-58
2022/12/28 06:26:49;;;;;;;0.50;0.10;;;11.60;99.90;;;;;;5029886;28;20648;-58
2022/12/28 06:29:14;;;;;;;3.60;0.20;;;11.50;99.90;;;;;;5020139;28;20265;-58
2022/12/28 06:31:45;;;;;;;0.97;0.20;;;11.50;99.90;;;;;;5022462;28;20182;-59
2022/12/28 06:34:11;;;;;;;1.47;0.30;;;11.70;99.90;;;;;;5021016;28;20201;-58
2022/12/28 06:36:40;;;;;;;1.63;0.20;;;11.30;99.90;;;;;;5027605;28;20203;-59
2022/12/28 06:39:08;;;;;;;3.33;0.30;;;11.40;99.90;;;;;;5030035;28;20193;-58
2022/12/28 06:41:34;;;;;;;2.47;0.20;;;11.40;99.90;;;;;;5029968;28;20205;-59
2022/12/28 06:44:00;;;;;;;2.77;0.30;;;11.40;99.90;;;;;;5030068;28;20212;-58
2022/12/28 06:46:28;;;;;;;2.27;0.27;;;11.40;99.90;;;;;;5030561;28;20188;-58
2022/12/28 06:48:55;;;;;;;0.97;0.20;;;11.40;99.90;;;;;;5030493;28;20220;-59
2022/12/28 06:51:25;;;;;;;0.87;0.20;;;11.40;99.90;;;;;;5030103;28;20185;-58
2022/12/28 06:53:52;;;;;;;1.03;0.20;;;11.40;99.90;;;;;;5030298;28;20174;-58
2022/12/28 06:56:24;;;;;;;0.70;0.30;;;11.30;99.90;;;;;;5030845;28;20185;-58
2022/12/28 06:58:51;;;;;;;0.50;0.13;;;11.30;99.90;;;;;;5030587;28;20186;-58
2022/12/28 07:01:22;;;;;;;0.83;0.20;;;11.30;99.90;;;;;;5029539;28;20679;-59
2022/12/28 07:03:50;;;;;;;0.87;0.30;;;11.30;99.90;;;;;;5030671;28;20185;-59
2022/12/28 07:06:17;;;;;;;0.27;0.13;;;11.30;99.90;;;;;;5030408;28;20189;-59
2022/12/28 07:08:44;;;;;;;1.43;0.30;;;10.90;99.90;;;;;;5034709;28;20169;-59
2022/12/28 07:11:13;;;;;;;2.10;0.37;;;11.30;99.90;;;;;;5034621;28;20166;-60
2022/12/28 07:13:39;;;;;;;1.83;0.40;;;11.30;99.90;;;;;;5034285;28;20852;-60
2022/12/28 07:16:08;;;;;;;2.53;0.30;;;11.20;99.90;;;;;;5034265;28;20177;-60
2022/12/28 07:18:34;;;;;;;4.03;0.47;;;11.20;99.90;;;;;;5034169;28;20320;-60
2022/12/28 07:21:03;;;;;;;4.33;0.70;;;11.20;99.90;;;;;;5033786;28;20257;-60
2022/12/28 07:23:30;;;;;;;3.80;0.40;;;11.10;99.90;;;;;;5034230;28;20213;-60
2022/12/28 07:26:08;;;;;;;3.63;0.47;;;11.20;99.90;;;;;;5034248;28;20174;-60
2022/12/28 07:28:45;;;;;;;2.83;0.60;;;11.20;99.90;;;;;;5034278;28;20174;-60
2022/12/28 07:31:15;;;;;;;4.13;0.43;;;11.20;99.90;;;;;;5028265;28;20232;-60
2022/12/28 07:33:41;;;;;;;2.40;0.40;;;11.20;99.90;;;;;;5032712;28;20169;-60
2022/12/28 07:36:09;;;;;;;2.50;0.50;;;11.20;99.90;;;;;;5034297;28;20178;-60
2022/12/28 07:38:35;;;;;;;8.10;0.93;;;11.20;99.90;;;;;;5034225;28;20178;-60
2022/12/28 07:41:06;;;;;;;2.73;0.70;;;11.20;99.90;;;;;;5034221;28;20652;-60
2022/12/28 07:43:32;;;;;;;4.90;0.83;;;11.20;99.90;;;;;;5034350;28;20284;-60
2022/12/28 07:46:02;;;;;;;3.50;0.70;;;11.10;99.90;;;;;;5034237;28;20170;-60
2022/12/28 07:48:31;;;;;;;4.93;0.70;;;11.20;99.90;;;;;;5034056;28;20174;-60
2022/12/28 07:51:03;;;;;;;6.80;0.60;;;11.10;99.90;;;;;;5034092;28;20189;-60
2022/12/28 07:53:29;;;;;;;3.27;0.80;;;11.10;99.90;;;;;;5032398;28;20166;-60
2022/12/28 07:55:56;;;;;;;5.43;0.90;;;11.20;99.90;;;;;;5033812;28;20594;-60
2022/12/28 07:58:22;;;;;;;3.90;0.77;;;11.00;99.90;;;;;;5033746;28;20188;-59
2022/12/28 08:00:48;;;;;;;2.23;0.80;;;11.00;99.90;;;;;;5030012;28;20720;-59
2022/12/28 08:03:14;;;;;;;7.53;0.63;;;11.00;99.90;;;;;;5033516;28;20292;-60
2022/12/28 08:05:39;;;;;;;8.63;1.10;;;10.90;99.90;;;;;;5033184;28;20268;-60
2022/12/28 08:08:05;;;;;;;4.83;1.00;;;10.90;99.90;;;;;;5032912;28;20260;-60
2022/12/28 08:10:31;;;;;;;6.43;0.83;;;10.80;99.90;;;;;;5033707;28;20654;-60
2022/12/28 08:12:59;;;;;;;7.97;1.00;;;10.80;99.90;;;;;;5032278;28;20257;-60
2022/12/28 08:15:24;;;;;;;10.93;1.30;;;10.80;99.90;;;;;;5032766;28;20648;-59
2022/12/28 08:17:52;;;;;;;6.03;0.93;;;10.80;99.90;;;;;;5033031;28;20200;-58
2022/12/28 08:20:17;;;;;;;10.10;1.37;;;10.60;99.90;;;;;;5032628;28;20667;-58
2022/12/28 08:22:43;;;;;;;11.83;0.97;;;10.70;99.90;;;;;;5032893;28;20213;-59
2022/12/28 08:25:09;;;;;;;7.60;1.07;;;10.70;99.90;;;;;;5033359;28;20189;-58
2022/12/28 08:27:34;;;;;;;5.70;1.47;;;10.70;99.90;;;;;;5029049;28;20185;-59
2022/12/28 08:30:00;;;;;;;6.17;1.17;;;10.70;99.90;;;;;;5031297;28;20182;-58
2022/12/28 08:32:26;;;;;;;8.77;1.30;;;10.70;99.90;;;;;;5032036;28;20651;-59
2022/12/28 08:34:51;;;;;;;5.67;1.40;;;10.70;99.90;;;;;;5027091;28;20272;-60
2022/12/28 08:37:17;;;;;;;12.73;1.73;;;10.70;99.90;;;;;;5024633;28;20546;-60
2022/12/28 08:39:42;;;;;;;17.97;2.23;;;10.70;99.90;;;;;;5031355;28;20186;-59
2022/12/28 08:42:08;;;;;;;10.77;1.50;;;10.70;99.90;;;;;;5032577;28;20213;-59
2022/12/28 08:44:34;;;;;;;15.10;2.10;;;10.70;99.90;;;;;;5032750;28;20248;-58
2022/12/28 08:46:59;;;;;;;12.93;2.00;;;10.70;99.90;;;;;;5032945;28;20186;-59
2022/12/28 08:49:25;;;;;;;5.40;1.00;;;10.70;99.90;;;;;;5032393;28;20174;-59
2022/12/28 08:51:50;;;;;;;9.93;1.10;;;10.70;99.90;;;;;;5032217;28;20684;-59
2022/12/28 08:54:16;;;;;;;14.17;2.03;;;10.80;99.90;;;;;;5032251;28;20192;-59
2022/12/28 08:56:43;;;;;;;17.13;2.10;;;10.80;99.90;;;;;;5032837;28;20224;-59
2022/12/28 08:59:14;;;;;;;15.67;2.53;;;10.70;99.90;;;;;;5032467;28;20232;-60
2022/12/28 09:01:39;;;;;;;10.57;2.27;;;10.70;99.90;;;;;;5032253;28;20225;-60
2022/12/28 09:04:07;;;;;;;7.43;1.47;;;10.70;99.90;;;;;;5032700;28;20181;-60
2022/12/28 09:06:36;;;;;;;14.10;1.70;;;10.70;99.90;;;;;;5032240;28;20178;-58
2022/12/28 09:09:04;;;;;;;9.43;1.10;;;10.70;99.90;;;;;;5032245;28;20640;-58
2022/12/28 09:11:29;;;;;;;8.70;1.57;;;10.70;99.90;;;;;;5031838;28;20200;-59
2022/12/28 09:13:55;;;;;;;5.13;1.03;;;10.70;99.90;;;;;;5032064;28;20649;-60
2022/12/28 09:16:25;;;;;;;10.73;1.77;;;10.70;99.90;;;;;;5031306;28;20178;-61
2022/12/28 09:18:55;;;;;;;3.50;1.27;;;10.70;99.90;;;;;;5032303;28;20169;-59
2022/12/28 09:21:23;;;;;;;14.03;1.90;;;10.80;99.90;;;;;;5032338;28;20185;-59
2022/12/28 09:23:49;;;;;;;16.70;1.30;;;10.80;99.90;;;;;;5026272;28;20308;-59
2022/12/28 09:26:20;;;;;;;11.07;1.40;;;10.80;99.90;;;;;;5032399;28;20177;-60
2022/12/28 09:28:54;;;;;;;8.03;1.10;;;10.70;99.90;;;;;;5031844;28;20185;-60
2022/12/28 09:31:22;;;;;;;6.90;1.40;;;10.80;99.90;;;;;;5030350;28;20220;-61
2022/12/28 09:34:00;;;;;;;7.60;1.30;;;10.80;99.90;;;;;;5031979;28;20185;-75
2022/12/28 09:36:29;;;;;;;11.57;1.60;;;10.80;99.90;;;;;;5032046;28;20672;-60
2022/12/28 09:38:56;;;;;;;8.40;1.57;;;10.80;99.90;;;;;;5031953;28;20656;-61
2022/12/28 09:41:28;;;;;;;11.17;1.60;;;10.80;99.90;;;;;;5030797;28;20178;-61
2022/12/28 09:44:30;;;;;;;5.00;1.30;;;10.80;99.90;;;;;;5031615;28;20181;-62
2022/12/28 09:46:56;;;;;;;7.77;1.27;;;;;;;;;;5029591;28;20183;-60
2022/12/28 09:49:37;;;;;;;5.43;1.20;;;10.50;99.90;;;;;;5031769;28;20597;-59
2022/12/28 09:52:18;;;;;;;13.17;1.70;;;10.90;99.90;;;;;;5031127;28;20663;-60
2022/12/28 09:54:43;;;;;;;8.10;1.83;;;10.90;99.90;;;;;;5031761;28;20169;-61
2022/12/28 09:57:15;;;;;;;5.07;1.00;;;10.90;99.90;;;;;;5031702;28;20582;-60
2022/12/28 09:59:42;;;;;;;9.70;1.33;;;10.90;99.90;;;;;;5031562;28;20173;-61
2022/12/28 10:02:35;;;;;;;9.77;1.23;;;10.90;99.90;;;;;;5030874;28;20221;-61
2022/12/28 10:05:01;;;;;;;9.37;1.23;;;10.90;99.90;;;;;;5029207;28;20699;-60
2022/12/28 10:07:27;;;;;;;10.03;1.63;;;10.90;99.90;;;;;;5031544;28;20299;-61
2022/12/28 10:09:52;;;;;;;12.43;1.80;;;10.90;99.90;;;;;;5031498;28;20702;-62
2022/12/28 10:12:23;;;;;;;6.53;1.37;;;11.00;99.90;;;;;;5030911;28;20177;-63
2022/12/28 10:14:51;;;;;;;13.00;1.63;;;10.90;99.90;;;;;;5031152;28;20178;-61
2022/12/28 10:17:23;;;;;;;6.27;1.27;;;10.90;99.90;;;;;;5020270;28;20261;-60
2022/12/28 10:19:49;;;;;;;4.80;0.90;;;10.80;99.90;;;;;;5017431;28;20223;-61
2022/12/28 10:22:19;;;;;;;8.37;1.13;;;10.90;99.90;;;;;;5026559;28;20209;-61
2022/12/28 10:24:46;;;;;;;6.67;0.90;;;10.80;99.90;;;;;;5031042;28;20188;-61
2022/12/28 10:27:21;;;;;;;7.27;1.20;;;10.80;99.90;;;;;;5030696;28;20234;-61
2022/12/28 10:29:50;;;;;;;11.37;1.60;;;11.00;99.90;;;;;;5028141;28;20184;-62
2022/12/28 10:32:17;;;;;;;10.93;2.10;;;10.90;99.90;;;;;;5030071;28;20181;-62
2022/12/28 10:35:00;;;;;;;5.23;0.70;;;11.00;99.90;;;;;;5023967;28;20257;-61
2022/12/28 10:37:31;;;;;;;7.27;1.47;;;11.00;99.90;;;;;;5020696;28;20173;-60
2022/12/28 10:40:00;;;;;;;7.13;1.33;;;10.90;99.90;;;;;;5030676;28;20227;-60
2022/12/28 10:42:31;;;;;;;10.60;1.30;;;10.80;99.90;;;;;;5029821;28;20245;-61
2022/12/28 10:45:05;;;;;;;8.57;1.30;;;10.90;99.90;;;;;;5030850;28;20640;-62
2022/12/28 10:47:35;;;;;;;6.40;1.17;;;10.90;99.90;;;;;;5030822;28;20243;-62
2022/12/28 10:50:00;;;;;;;7.37;1.60;;;10.90;99.90;;;;;;5030932;28;20176;-61
2022/12/28 10:52:27;;;;;;;6.70;1.50;;;11.00;99.90;;;;;;5030139;28;20539;-62
2022/12/28 10:54:58;;;;;;;15.33;1.23;;;11.10;99.90;;;;;;5030212;28;20257;-61
2022/12/28 10:57:29;;;;;;;3.33;0.47;;;11.10;99.90;;;;;;5030697;28;20177;-61
2022/12/28 11:00:18;;;;;;;5.40;0.83;;;11.10;99.90;;;;;;5029682;28;20178;-61
2022/12/28 11:02:44;;;;;;;10.90;1.30;;;11.20;99.90;;;;;;5030520;28;20276;-61
2022/12/28 11:05:23;;;;;;;5.20;1.40;;;11.20;99.90;;;;;;5030809;28;20162;-61
2022/12/28 11:08:03;;;;;;;3.97;1.47;;;11.30;99.90;;;;;;5030502;28;20648;-60
2022/12/28 11:10:31;;;;;;;8.27;0.83;;;11.20;99.90;;;;;;5010946;28;20173;-60
2022/12/28 11:12:59;;;;;;;9.13;1.00;;;11.40;99.90;;;;;;5015551;28;20581;-60
2022/12/28 11:15:29;;;;;;;5.87;0.40;;;11.40;99.90;;;;;;5029606;28;20235;-62
2022/12/28 11:18:15;;;;;;;1.87;0.77;;;11.40;99.90;;;;;;5026956;28;20204;-61
2022/12/28 11:20:44;;;;;;;3.20;0.47;;;11.50;99.90;;;;;;5027042;28;20182;-62
2022/12/28 11:23:31;;;;;;;3.03;0.87;;;11.50;99.90;;;;;;5029187;28;20206;-62
2022/12/28 11:25:57;;;;;;;2.43;0.43;;;11.60;99.90;;;;;;5026807;28;20636;-61
2022/12/28 11:28:23;;;;;;;6.13;1.13;;;11.60;99.90;;;;;;5029908;28;20170;-61
2022/12/28 11:30:50;;;;;;;8.30;0.93;;;11.70;99.90;;;;;;5029736;28;20173;-62
2022/12/28 11:33:34;;;;;;;1.00;0.30;;;11.70;99.90;;;;;;5029904;28;20253;-62
2022/12/28 11:36:01;;;;;;;1.93;0.47;;;11.70;99.90;;;;;;5028520;28;20269;-61
2022/12/28 11:38:40;;;;;;;2.80;0.93;;;11.70;99.90;;;;;;5029971;28;20182;-62
2022/12/28 11:41:11;;;;;;;1.70;0.50;;;11.70;99.90;;;;;;5030425;28;20198;-61
2022/12/28 11:43:48;;;;;;;3.60;0.40;;;11.80;99.90;;;;;;5030380;28;20214;-59
2022/12/28 11:46:19;;;;;;;1.37;0.50;;;11.80;99.90;;;;;;5030034;28;20181;-61
2022/12/28 11:48:57;;;;;;;0.77;0.20;;;11.80;99.90;;;;;;5030144;28;20687;-60
2022/12/28 11:51:24;;;;;;;5.20;0.60;;;11.80;99.90;;;;;;5030263;28;20185;-60
2022/12/28 11:53:52;;;;;;;0.83;0.30;;;11.80;99.90;;;;;;5031252;28;20178;-61
2022/12/28 11:56:21;;;;;;;0.80;0.20;;;11.80;99.90;;;;;;5033533;28;20265;-60
2022/12/28 11:59:04;;;;;;;1.60;0.53;;;11.80;99.90;;;;;;5032659;28;20212;-61
2022/12/28 12:01:35;;;;;;;1.73;0.33;;;11.80;99.90;;;;;;5033217;28;20214;-61
2022/12/28 12:04:14;;;;;;;2.63;0.30;;;11.80;99.90;;;;;;5033548;28;20188;-61
2022/12/28 12:06:43;;;;;;;1.83;0.43;;;11.80;99.90;;;;;;5033795;28;20182;-61
2022/12/28 12:09:22;;;;;;;2.10;0.20;;;11.80;99.90;;;;;;5032820;28;20273;-61
2022/12/28 12:11:52;;;;;;;0.10;0.10;;;11.80;99.90;;;;;;5028080;28;20241;-60
2022/12/28 12:14:31;;;;;;;1.60;0.30;;;11.80;99.90;;;;;;5033514;28;20235;-61
2022/12/28 12:17:06;;;;;;;0.87;0.20;;;11.80;99.90;;;;;;5032947;28;20698;-61
2022/12/28 12:19:35;;;;;;;0.13;0.10;;;11.90;99.90;;;;;;5030227;28;20593;-62
2022/12/28 12:22:18;;;;;;;1.13;0.30;;;13.30;99.90;;;;;;5028861;28;20208;-61
2022/12/28 12:25:14;;;;;;;1.10;0.43;;;12.10;99.90;;;;;;5018377;28;20197;-62
2022/12/28 12:27:43;;;;;;;0.30;0.20;;;12.00;99.90;;;;;;5032991;28;20205;-62
2022/12/28 12:30:19;;;;;;;0.73;0.27;;;12.10;99.90;;;;;;5032242;28;20170;-62
2022/12/28 12:32:57;;;;;;;1.20;0.30;;;12.10;99.90;;;;;;5032175;28;20239;-61
2022/12/28 12:35:28;;;;;;;1.30;0.50;;;12.20;99.90;;;;;;5032928;28;20180;-62
2022/12/28 12:38:10;;;;;;;1.43;0.77;;;12.30;99.90;;;;;;5042152;28;20182;-61
2022/12/28 12:40:41;;;;;;;3.40;0.40;;;12.50;99.90;;;;;;5031544;28;20201;-62
2022/12/28 12:43:10;;;;;;;1.17;0.37;;;12.60;99.90;;;;;;5031982;28;20249;-62
2022/12/28 12:46:10;;;;;;;15.03;5.33;;;12.50;99.90;;;;;;5032324;28;20169;-62
2022/12/28 12:48:43;;;;;;;2.00;0.40;;;12.40;99.90;;;;;;5011030;28;20192;-62
2022/12/28 12:51:17;;;;;;;3.10;0.53;;;12.50;99.90;;;;;;5029918;28;20182;-63
2022/12/28 12:54:21;;;;;;;6.07;0.43;;;12.60;99.90;;;;;;5031053;28;20188;-62
2022/12/28 12:56:49;;;;;;;0.10;0.10;;;12.60;99.90;;;;;;5026271;28;20193;-62
2022/12/28 12:59:33;;;;;;;1.03;0.60;;;12.90;99.90;;;;;;5011819;28;20249;-61
2022/12/28 13:02:32;;;;;;;2.03;1.30;;;13.10;99.90;;;;;;5022264;28;20227;-63
2022/12/28 13:05:02;;;;;;;1.90;0.40;;;13.30;99.90;;;;;;5032018;28;20166;-61
2022/12/28 13:07:28;;;;;;;5.43;1.30;;;13.20;99.90;;;;;;5032584;28;20249;-61
2022/12/28 13:09:58;;;;;;;3.90;0.53;;;13.20;99.90;;;;;;5031152;28;20295;-61
2022/12/28 13:12:24;;;;;;;5.17;1.17;;;;;;;;;;5031645;28;20521;-61
2022/12/28 13:15:15;;;;;;;10.70;3.63;;;13.20;99.90;;;;;;5027443;28;20677;-62
2022/12/28 13:17:59;;;;;;;1.50;0.97;;;13.10;99.90;;;;;;5031278;28;20186;-61
2022/12/28 13:20:25;;;;;;;2.00;0.60;;;13.40;99.90;;;;;;5032413;28;20174;-61
2022/12/28 13:22:51;;;;;;;0.97;0.50;;;13.00;99.90;;;;;;5032154;28;20224;-61
2022/12/28 13:25:31;;;;;;;3.60;1.10;;;12.90;99.90;;;;;;5032241;28;20174;-60